Portada
METAR-TAF:

METAR-TAF

Aeroports :

Gifu, Japó

latitud: 35-23N, longitud: 136-52E, altitud: 39 m

Observació

L'informe es va fer fa 5 hores i 47 minuts, a les 08:42 UTC
Vent 4 kt del Est/Sud-Est, variant entre Nord-Est i Sud/Sud-Est
Temperatura 18°C
Humitat 88%
Pressió 1016 hPa
Visibilitat 10 km o més
Escasses núvols a una alçada de 1000 ft
Cel ennuvolat a una alçada de 5000 ft
Cel ennuvolat a una alçada de 10000 ft
xàfecs de pluja

METAR: RJNG 310842Z 11004KT 050V160 9999 -SHRA FEW010 BKN050 BKN100 18/16 Q1016 RMK 1CU010 5SC050 7AC100 A3002 VIS NW-N 8KM

Hora: 23:29 (14:29 UTC)


TAF: manca

Observacions i pronòstics meteorològics de més de 4000 aeroports (METAR i TAF).

Les estacions disponibles són els punts grocs i vermells al mapa.

Posi el ratolí al punt desitjat per veure el nom de l'estació.

Feu clic per veure les observacions i els pronòstics meteorològics.

Per canviar el mapa: feu clic els botons verds amb una creu de color negre per apropar; al botó verd amb un guió per allunyar la imatge; o en les fletxes verdes per a mapes adjacents.


METAR-TAF: